sensor_id;sensor_type;location;lat;lon;timestamp;P1;durP1;ratioP1;P2;durP2;ratioP2
18499;SDS011;9379;52.134;11.576;2023-01-06T00:01:23;4.60;;;3.80;;
18499;SDS011;9379;52.134;11.576;2023-01-06T00:03:52;4.75;;;4.25;;
18499;SDS011;9379;52.134;11.576;2023-01-06T00:06:22;5.07;;;4.32;;
18499;SDS011;9379;52.134;11.576;2023-01-06T00:08:51;4.88;;;4.43;;
18499;SDS011;9379;52.134;11.576;2023-01-06T00:11:18;3.58;;;3.28;;
18499;SDS011;9379;52.134;11.576;2023-01-06T00:13:45;7.28;;;4.70;;
18499;SDS011;9379;52.134;11.576;2023-01-06T00:16:14;5.32;;;4.35;;
18499;SDS011;9379;52.134;11.576;2023-01-06T00:18:43;5.13;;;4.40;;
18499;SDS011;9379;52.134;11.576;2023-01-06T00:21:12;5.75;;;4.45;;
18499;SDS011;9379;52.134;11.576;2023-01-06T00:23:39;5.38;;;4.53;;
18499;SDS011;9379;52.134;11.576;2023-01-06T00:26:07;4.57;;;3.80;;
18499;SDS011;9379;52.134;11.576;2023-01-06T00:28:35;5.75;;;3.28;;
18499;SDS011;9379;52.134;11.576;2023-01-06T00:31:05;4.55;;;4.15;;
18499;SDS011;9379;52.134;11.576;2023-01-06T00:33:33;5.97;;;3.90;;
18499;SDS011;9379;52.134;11.576;2023-01-06T00:36:00;4.95;;;4.45;;
18499;SDS011;9379;52.134;11.576;2023-01-06T00:38:28;5.70;;;4.88;;
18499;SDS011;9379;52.134;11.576;2023-01-06T00:40:55;6.05;;;4.70;;
18499;SDS011;9379;52.134;11.576;2023-01-06T00:43:22;4.43;;;3.90;;
18499;SDS011;9379;52.134;11.576;2023-01-06T00:45:49;6.45;;;4.03;;
18499;SDS011;9379;52.134;11.576;2023-01-06T00:48:16;4.18;;;3.70;;
18499;SDS011;9379;52.134;11.576;2023-01-06T00:50:43;5.72;;;4.63;;
18499;SDS011;9379;52.134;11.576;2023-01-06T00:53:10;5.07;;;4.57;;
18499;SDS011;9379;52.134;11.576;2023-01-06T00:55:38;8.07;;;5.13;;
18499;SDS011;9379;52.134;11.576;2023-01-06T00:58:04;3.75;;;3.33;;
18499;SDS011;9379;52.134;11.576;2023-01-06T01:00:31;6.70;;;4.97;;
18499;SDS011;9379;52.134;11.576;2023-01-06T01:02:58;4.72;;;4.32;;
18499;SDS011;9379;52.134;11.576;2023-01-06T01:05:25;5.93;;;5.25;;
18499;SDS011;9379;52.134;11.576;2023-01-06T01:07:52;6.03;;;5.45;;
18499;SDS011;9379;52.134;11.576;2023-01-06T01:10:18;6.30;;;4.78;;
18499;SDS011;9379;52.134;11.576;2023-01-06T01:12:47;4.72;;;4.05;;
18499;SDS011;9379;52.134;11.576;2023-01-06T01:15:13;5.60;;;5.03;;
18499;SDS011;9379;52.134;11.576;2023-01-06T01:17:40;5.07;;;4.32;;
18499;SDS011;9379;52.134;11.576;2023-01-06T01:20:07;8.88;;;4.38;;
18499;SDS011;9379;52.134;11.576;2023-01-06T01:22:35;5.43;;;4.63;;
18499;SDS011;9379;52.134;11.576;2023-01-06T01:25:02;6.05;;;5.35;;
18499;SDS011;9379;52.134;11.576;2023-01-06T01:27:29;6.20;;;5.60;;
18499;SDS011;9379;52.134;11.576;2023-01-06T01:29:57;6.07;;;5.45;;
18499;SDS011;9379;52.134;11.576;2023-01-06T01:32:24;10.18;;;4.97;;
18499;SDS011;9379;52.134;11.576;2023-01-06T01:34:51;5.63;;;5.07;;
18499;SDS011;9379;52.134;11.576;2023-01-06T01:37:17;5.40;;;4.90;;
18499;SDS011;9379;52.134;11.576;2023-01-06T01:39:44;6.63;;;4.93;;
18499;SDS011;9379;52.134;11.576;2023-01-06T01:42:13;11.85;;;5.72;;
18499;SDS011;9379;52.134;11.576;2023-01-06T01:45:00;5.97;;;5.47;;
18499;SDS011;9379;52.134;11.576;2023-01-06T01:47:41;8.77;;;5.10;;
18499;SDS011;9379;52.134;11.576;2023-01-06T01:50:16;7.13;;;6.38;;
18499;SDS011;9379;52.134;11.576;2023-01-06T01:52:49;6.32;;;5.22;;
18499;SDS011;9379;52.134;11.576;2023-01-06T01:55:19;5.88;;;5.28;;
18499;SDS011;9379;52.134;11.576;2023-01-06T01:57:48;7.88;;;5.95;;
18499;SDS011;9379;52.134;11.576;2023-01-06T02:00:21;7.18;;;5.05;;
18499;SDS011;9379;52.134;11.576;2023-01-06T02:02:48;7.07;;;6.38;;
18499;SDS011;9379;52.134;11.576;2023-01-06T02:05:15;7.13;;;5.22;;
18499;SDS011;9379;52.134;11.576;2023-01-06T02:07:45;8.27;;;5.60;;
18499;SDS011;9379;52.134;11.576;2023-01-06T02:10:13;10.52;;;6.03;;
18499;SDS011;9379;52.134;11.576;2023-01-06T02:12:42;10.50;;;6.90;;
18499;SDS011;9379;52.134;11.576;2023-01-06T02:15:15;11.52;;;7.18;;
18499;SDS011;9379;52.134;11.576;2023-01-06T02:17:55;9.02;;;7.22;;
18499;SDS011;9379;52.134;11.576;2023-01-06T02:20:41;6.63;;;5.80;;
18499;SDS011;9379;52.134;11.576;2023-01-06T02:23:23;9.13;;;6.10;;
18499;SDS011;9379;52.134;11.576;2023-01-06T02:32:14;7.88;;;5.18;;
18499;SDS011;9379;52.134;11.576;2023-01-06T02:34:54;6.43;;;5.82;;
18499;SDS011;9379;52.134;11.576;2023-01-06T02:37:36;7.43;;;6.63;;
18499;SDS011;9379;52.134;11.576;2023-01-06T02:40:17;6.28;;;5.57;;
18499;SDS011;9379;52.134;11.576;2023-01-06T02:42:56;7.03;;;5.85;;
18499;SDS011;9379;52.134;11.576;2023-01-06T02:45:36;6.32;;;5.68;;
18499;SDS011;9379;52.134;11.576;2023-01-06T02:48:11;11.40;;;6.05;;
18499;SDS011;9379;52.134;11.576;2023-01-06T02:50:49;11.43;;;6.47;;
18499;SDS011;9379;52.134;11.576;2023-01-06T02:53:21;9.98;;;6.57;;
18499;SDS011;9379;52.134;11.576;2023-01-06T02:55:56;8.50;;;7.18;;
18499;SDS011;9379;52.134;11.576;2023-01-06T02:58:26;8.68;;;5.30;;
18499;SDS011;9379;52.134;11.576;2023-01-06T03:01:02;5.53;;;5.03;;
18499;SDS011;9379;52.134;11.576;2023-01-06T03:03:35;8.48;;;5.47;;
18499;SDS011;9379;52.134;11.576;2023-01-06T03:06:05;5.00;;;4.50;;
18499;SDS011;9379;52.134;11.576;2023-01-06T03:08:34;6.15;;;5.57;;
18499;SDS011;9379;52.134;11.576;2023-01-06T03:11:02;8.73;;;5.32;;
18499;SDS011;9379;52.134;11.576;2023-01-06T03:13:32;10.98;;;6.45;;
18499;SDS011;9379;52.134;11.576;2023-01-06T03:16:04;13.13;;;7.07;;
18499;SDS011;9379;52.134;11.576;2023-01-06T03:18:32;5.68;;;5.13;;
18499;SDS011;9379;52.134;11.576;2023-01-06T03:21:02;12.52;;;6.95;;
18499;SDS011;9379;52.134;11.576;2023-01-06T03:23:33;10.85;;;6.85;;
18499;SDS011;9379;52.134;11.576;2023-01-06T03:26:03;10.27;;;6.88;;
18499;SDS011;9379;52.134;11.576;2023-01-06T03:28:30;6.68;;;5.78;;
18499;SDS011;9379;52.134;11.576;2023-01-06T03:30:58;11.85;;;7.25;;
18499;SDS011;9379;52.134;11.576;2023-01-06T03:33:32;11.02;;;5.85;;
18499;SDS011;9379;52.134;11.576;2023-01-06T03:36:10;8.70;;;5.20;;
18499;SDS011;9379;52.134;11.576;2023-01-06T03:38:47;9.95;;;6.18;;
18499;SDS011;9379;52.134;11.576;2023-01-06T03:41:25;10.32;;;7.07;;
18499;SDS011;9379;52.134;11.576;2023-01-06T03:44:12;8.50;;;7.70;;
18499;SDS011;9379;52.134;11.576;2023-01-06T03:46:45;13.20;;;7.38;;
18499;SDS011;9379;52.134;11.576;2023-01-06T03:49:20;10.75;;;5.57;;
18499;SDS011;9379;52.134;11.576;2023-01-06T03:51:53;11.57;;;7.47;;
18499;SDS011;9379;52.134;11.576;2023-01-06T03:54:24;7.30;;;6.45;;
18499;SDS011;9379;52.134;11.576;2023-01-06T03:57:01;5.72;;;5.20;;
18499;SDS011;9379;52.134;11.576;2023-01-06T03:59:33;15.07;;;8.40;;
18499;SDS011;9379;52.134;11.576;2023-01-06T04:02:02;12.30;;;8.25;;
18499;SDS011;9379;52.134;11.576;2023-01-06T04:04:30;14.25;;;7.65;;
18499;SDS011;9379;52.134;11.576;2023-01-06T04:06:58;8.43;;;6.80;;
18499;SDS011;9379;52.134;11.576;2023-01-06T04:09:25;7.10;;;5.78;;
18499;SDS011;9379;52.134;11.576;2023-01-06T04:11:52;8.43;;;6.07;;
18499;SDS011;9379;52.134;11.576;2023-01-06T04:14:35;7.18;;;5.30;;
18499;SDS011;9379;52.134;11.576;2023-01-06T04:17:02;18.58;;;7.10;;
18499;SDS011;9379;52.134;11.576;2023-01-06T04:19:29;8.27;;;5.80;;
18499;SDS011;9379;52.134;11.576;2023-01-06T04:21:56;12.30;;;6.68;;
18499;SDS011;9379;52.134;11.576;2023-01-06T04:24:24;8.27;;;5.50;;
18499;SDS011;9379;52.134;11.576;2023-01-06T04:26:52;7.05;;;6.10;;
18499;SDS011;9379;52.134;11.576;2023-01-06T04:29:19;10.38;;;6.47;;
18499;SDS011;9379;52.134;11.576;2023-01-06T04:31:46;12.63;;;7.38;;
18499;SDS011;9379;52.134;11.576;2023-01-06T04:34:13;6.43;;;5.57;;
18499;SDS011;9379;52.134;11.576;2023-01-06T04:36:40;5.78;;;4.43;;
18499;SDS011;9379;52.134;11.576;2023-01-06T04:39:06;6.97;;;5.43;;
18499;SDS011;9379;52.134;11.576;2023-01-06T04:41:35;10.00;;;5.13;;
18499;SDS011;9379;52.134;11.576;2023-01-06T04:44:01;6.70;;;5.75;;
18499;SDS011;9379;52.134;11.576;2023-01-06T04:46:28;7.78;;;4.55;;
18499;SDS011;9379;52.134;11.576;2023-01-06T04:48:55;11.10;;;5.63;;
18499;SDS011;9379;52.134;11.576;2023-01-06T04:51:22;12.85;;;6.07;;
18499;SDS011;9379;52.134;11.576;2023-01-06T04:53:48;4.63;;;3.92;;
18499;SDS011;9379;52.134;11.576;2023-01-06T04:56:15;11.20;;;6.43;;
18499;SDS011;9379;52.134;11.576;2023-01-06T04:58:43;14.15;;;5.07;;
18499;SDS011;9379;52.134;11.576;2023-01-06T05:01:11;12.10;;;5.75;;
18499;SDS011;9379;52.134;11.576;2023-01-06T05:03:38;10.18;;;5.95;;
18499;SDS011;9379;52.134;11.576;2023-01-06T05:06:06;8.52;;;4.43;;
18499;SDS011;9379;52.134;11.576;2023-01-06T05:08:34;5.95;;;4.53;;
18499;SDS011;9379;52.134;11.576;2023-01-06T05:11:02;6.30;;;4.93;;
18499;SDS011;9379;52.134;11.576;2023-01-06T05:13:31;8.68;;;7.13;;
18499;SDS011;9379;52.134;11.576;2023-01-06T05:15:59;5.18;;;4.40;;
18499;SDS011;9379;52.134;11.576;2023-01-06T05:18:26;6.18;;;5.15;;
18499;SDS011;9379;52.134;11.576;2023-01-06T05:20:53;6.43;;;3.38;;
18499;SDS011;9379;52.134;11.576;2023-01-06T05:23:20;4.82;;;4.28;;
18499;SDS011;9379;52.134;11.576;2023-01-06T05:25:49;9.90;;;4.75;;
18499;SDS011;9379;52.134;11.576;2023-01-06T05:28:16;10.45;;;5.93;;
18499;SDS011;9379;52.134;11.576;2023-01-06T05:30:44;5.75;;;4.53;;
18499;SDS011;9379;52.134;11.576;2023-01-06T05:33:12;8.27;;;4.93;;
18499;SDS011;9379;52.134;11.576;2023-01-06T05:35:39;8.00;;;4.82;;
18499;SDS011;9379;52.134;11.576;2023-01-06T05:38:06;7.05;;;5.05;;
18499;SDS011;9379;52.134;11.576;2023-01-06T05:40:33;9.30;;;5.20;;
18499;SDS011;9379;52.134;11.576;2023-01-06T05:43:00;4.68;;;4.28;;
18499;SDS011;9379;52.134;11.576;2023-01-06T05:45:26;11.77;;;4.47;;
18499;SDS011;9379;52.134;11.576;2023-01-06T05:47:53;6.68;;;4.53;;
18499;SDS011;9379;52.134;11.576;2023-01-06T05:50:23;11.98;;;6.93;;
18499;SDS011;9379;52.134;11.576;2023-01-06T05:52:50;6.20;;;4.00;;
18499;SDS011;9379;52.134;11.576;2023-01-06T05:55:16;5.53;;;3.65;;
18499;SDS011;9379;52.134;11.576;2023-01-06T05:57:43;12.93;;;6.55;;
18499;SDS011;9379;52.134;11.576;2023-01-06T06:00:10;11.35;;;3.78;;
18499;SDS011;9379;52.134;11.576;2023-01-06T06:02:39;6.57;;;5.90;;
18499;SDS011;9379;52.134;11.576;2023-01-06T06:05:06;5.25;;;3.45;;
18499;SDS011;9379;52.134;11.576;2023-01-06T06:07:34;13.00;;;5.13;;
18499;SDS011;9379;52.134;11.576;2023-01-06T06:10:01;12.00;;;5.65;;
18499;SDS011;9379;52.134;11.576;2023-01-06T06:12:29;4.07;;;3.70;;
18499;SDS011;9379;52.134;11.576;2023-01-06T06:14:55;5.50;;;4.28;;
18499;SDS011;9379;52.134;11.576;2023-01-06T06:17:22;3.90;;;3.50;;
18499;SDS011;9379;52.134;11.576;2023-01-06T06:19:49;5.80;;;3.75;;
18499;SDS011;9379;52.134;11.576;2023-01-06T06:22:16;3.45;;;3.03;;
18499;SDS011;9379;52.134;11.576;2023-01-06T06:24:44;4.97;;;3.05;;
18499;SDS011;9379;52.134;11.576;2023-01-06T06:27:11;2.78;;;2.53;;
18499;SDS011;9379;52.134;11.576;2023-01-06T06:29:38;2.85;;;2.65;;
18499;SDS011;9379;52.134;11.576;2023-01-06T06:32:04;4.20;;;2.72;;
18499;SDS011;9379;52.134;11.576;2023-01-06T06:34:31;5.78;;;3.40;;
18499;SDS011;9379;52.134;11.576;2023-01-06T06:36:58;5.43;;;2.35;;
18499;SDS011;9379;52.134;11.576;2023-01-06T06:39:25;2.67;;;2.45;;
18499;SDS011;9379;52.134;11.576;2023-01-06T06:41:53;4.80;;;4.15;;
18499;SDS011;9379;52.134;11.576;2023-01-06T06:44:20;3.80;;;3.03;;
18499;SDS011;9379;52.134;11.576;2023-01-06T06:46:46;3.97;;;3.05;;
18499;SDS011;9379;52.134;11.576;2023-01-06T06:49:13;5.65;;;2.95;;
18499;SDS011;9379;52.134;11.576;2023-01-06T06:51:40;3.20;;;2.88;;
18499;SDS011;9379;52.134;11.576;2023-01-06T06:54:07;4.10;;;2.28;;
18499;SDS011;9379;52.134;11.576;2023-01-06T06:56:34;4.70;;;2.28;;
18499;SDS011;9379;52.134;11.576;2023-01-06T06:59:02;3.22;;;2.50;;
18499;SDS011;9379;52.134;11.576;2023-01-06T07:01:28;1.88;;;1.70;;
18499;SDS011;9379;52.134;11.576;2023-01-06T07:03:56;2.00;;;1.60;;
18499;SDS011;9379;52.134;11.576;2023-01-06T07:06:23;3.53;;;3.22;;
18499;SDS011;9379;52.134;11.576;2023-01-06T07:08:52;2.30;;;2.08;;
18499;SDS011;9379;52.134;11.576;2023-01-06T07:11:19;9.20;;;3.80;;
18499;SDS011;9379;52.134;11.576;2023-01-06T07:13:46;4.93;;;2.40;;
18499;SDS011;9379;52.134;11.576;2023-01-06T07:16:14;3.72;;;2.17;;
18499;SDS011;9379;52.134;11.576;2023-01-06T07:18:42;3.72;;;3.05;;
18499;SDS011;9379;52.134;11.576;2023-01-06T07:21:08;5.50;;;2.97;;
18499;SDS011;9379;52.134;11.576;2023-01-06T07:23:35;3.50;;;3.08;;
18499;SDS011;9379;52.134;11.576;2023-01-06T07:26:02;7.15;;;3.05;;
18499;SDS011;9379;52.134;11.576;2023-01-06T07:28:30;6.00;;;3.22;;
18499;SDS011;9379;52.134;11.576;2023-01-06T07:30:57;3.63;;;3.28;;
18499;SDS011;9379;52.134;11.576;2023-01-06T07:33:26;5.78;;;3.97;;
18499;SDS011;9379;52.134;11.576;2023-01-06T07:35:53;3.85;;;3.45;;
18499;SDS011;9379;52.134;11.576;2023-01-06T07:38:21;6.20;;;5.55;;
18499;SDS011;9379;52.134;11.576;2023-01-06T07:40:48;10.38;;;5.90;;
18499;SDS011;9379;52.134;11.576;2023-01-06T07:43:15;7.45;;;6.45;;
18499;SDS011;9379;52.134;11.576;2023-01-06T07:45:44;12.18;;;8.68;;
18499;SDS011;9379;52.134;11.576;2023-01-06T07:48:11;12.40;;;7.78;;
18499;SDS011;9379;52.134;11.576;2023-01-06T07:50:40;11.65;;;7.53;;
18499;SDS011;9379;52.134;11.576;2023-01-06T07:53:07;11.93;;;6.13;;
18499;SDS011;9379;52.134;11.576;2023-01-06T07:55:35;4.13;;;3.83;;
18499;SDS011;9379;52.134;11.576;2023-01-06T07:58:02;3.25;;;2.90;;
18499;SDS011;9379;52.134;11.576;2023-01-06T08:00:30;4.88;;;2.63;;
18499;SDS011;9379;52.134;11.576;2023-01-06T08:02:57;2.33;;;1.83;;
18499;SDS011;9379;52.134;11.576;2023-01-06T08:05:23;1.90;;;1.75;;
18499;SDS011;9379;52.134;11.576;2023-01-06T08:07:52;2.28;;;2.08;;
18499;SDS011;9379;52.134;11.576;2023-01-06T08:10:18;4.57;;;2.67;;
18499;SDS011;9379;52.134;11.576;2023-01-06T08:12:45;2.65;;;2.15;;
18499;SDS011;9379;52.134;11.576;2023-01-06T08:15:12;2.53;;;2.33;;
18499;SDS011;9379;52.134;11.576;2023-01-06T08:17:39;2.40;;;2.30;;
18499;SDS011;9379;52.134;11.576;2023-01-06T08:20:06;2.95;;;2.72;;
18499;SDS011;9379;52.134;11.576;2023-01-06T08:22:33;2.38;;;1.50;;
18499;SDS011;9379;52.134;11.576;2023-01-06T08:25:01;1.63;;;1.52;;
18499;SDS011;9379;52.134;11.576;2023-01-06T08:27:28;1.08;;;1.08;;
18499;SDS011;9379;52.134;11.576;2023-01-06T08:29:55;1.60;;;1.48;;
18499;SDS011;9379;52.134;11.576;2023-01-06T08:32:22;2.42;;;2.22;;
18499;SDS011;9379;52.134;11.576;2023-01-06T08:34:49;2.22;;;2.03;;
18499;SDS011;9379;52.134;11.576;2023-01-06T08:37:15;2.15;;;1.33;;
18499;SDS011;9379;52.134;11.576;2023-01-06T08:39:42;1.30;;;1.20;;
18499;SDS011;9379;52.134;11.576;2023-01-06T08:42:11;1.42;;;1.33;;
18499;SDS011;9379;52.134;11.576;2023-01-06T08:44:38;1.55;;;1.45;;
18499;SDS011;9379;52.134;11.576;2023-01-06T08:47:05;1.92;;;1.63;;
18499;SDS011;9379;52.134;11.576;2023-01-06T08:49:31;1.15;;;1.00;;
18499;SDS011;9379;52.134;11.576;2023-01-06T08:51:58;2.63;;;2.08;;
18499;SDS011;9379;52.134;11.576;2023-01-06T08:54:26;2.40;;;2.20;;
18499;SDS011;9379;52.134;11.576;2023-01-06T08:56:53;2.75;;;2.55;;
18499;SDS011;9379;52.134;11.576;2023-01-06T08:59:21;2.53;;;1.95;;
18499;SDS011;9379;52.134;11.576;2023-01-06T09:01:48;2.03;;;1.92;;
18499;SDS011;9379;52.134;11.576;2023-01-06T09:04:15;2.22;;;2.03;;
18499;SDS011;9379;52.134;11.576;2023-01-06T09:06:42;2.33;;;1.98;;
18499;SDS011;9379;52.134;11.576;2023-01-06T09:09:11;2.28;;;2.08;;
18499;SDS011;9379;52.134;11.576;2023-01-06T09:11:39;2.10;;;1.90;;
18499;SDS011;9379;52.134;11.576;2023-01-06T09:14:07;2.75;;;2.08;;
18499;SDS011;9379;52.134;11.576;2023-01-06T09:16:35;6.30;;;1.85;;
18499;SDS011;9379;52.134;11.576;2023-01-06T09:19:02;2.60;;;2.35;;
18499;SDS011;9379;52.134;11.576;2023-01-06T09:21:29;2.58;;;2.05;;
18499;SDS011;9379;52.134;11.576;2023-01-06T09:23:56;2.45;;;2.33;;
18499;SDS011;9379;52.134;11.576;2023-01-06T09:26:23;2.05;;;1.92;;
18499;SDS011;9379;52.134;11.576;2023-01-06T09:28:50;2.03;;;1.83;;
18499;SDS011;9379;52.134;11.576;2023-01-06T09:31:17;3.08;;;2.28;;
18499;SDS011;9379;52.134;11.576;2023-01-06T09:33:45;2.85;;;1.98;;
18499;SDS011;9379;52.134;11.576;2023-01-06T09:36:12;2.22;;;2.03;;
18499;SDS011;9379;52.134;11.576;2023-01-06T09:38:38;2.03;;;1.75;;
18499;SDS011;9379;52.134;11.576;2023-01-06T09:41:16;2.85;;;2.60;;
18499;SDS011;9379;52.134;11.576;2023-01-06T09:44:00;2.30;;;1.55;;
18499;SDS011;9379;52.134;11.576;2023-01-06T09:46:33;3.58;;;2.15;;
18499;SDS011;9379;52.134;11.576;2023-01-06T09:49:06;1.77;;;1.67;;
18499;SDS011;9379;52.134;11.576;2023-01-06T09:51:39;2.63;;;2.00;;
18499;SDS011;9379;52.134;11.576;2023-01-06T09:54:09;2.17;;;2.05;;
18499;SDS011;9379;52.134;11.576;2023-01-06T09:56:41;3.65;;;3.35;;
18499;SDS011;9379;52.134;11.576;2023-01-06T09:59:13;3.58;;;2.15;;
18499;SDS011;9379;52.134;11.576;2023-01-06T10:01:46;2.33;;;2.17;;
18499;SDS011;9379;52.134;11.576;2023-01-06T10:04:16;3.30;;;2.85;;
18499;SDS011;9379;52.134;11.576;2023-01-06T10:06:48;2.63;;;2.42;;
18499;SDS011;9379;52.134;11.576;2023-01-06T10:09:24;2.50;;;2.30;;
18499;SDS011;9379;52.134;11.576;2023-01-06T10:11:57;1.98;;;1.85;;
18499;SDS011;9379;52.134;11.576;2023-01-06T10:14:35;2.35;;;2.15;;
18499;SDS011;9379;52.134;11.576;2023-01-06T10:17:15;2.45;;;2.25;;
18499;SDS011;9379;52.134;11.576;2023-01-06T10:20:00;1.02;;;1.00;;
18499;SDS011;9379;52.134;11.576;2023-01-06T10:22:36;6.38;;;4.95;;
18499;SDS011;9379;52.134;11.576;2023-01-06T10:25:13;5.82;;;4.53;;
18499;SDS011;9379;52.134;11.576;2023-01-06T10:27:46;4.70;;;4.18;;
18499;SDS011;9379;52.134;11.576;2023-01-06T10:30:17;3.70;;;3.25;;
18499;SDS011;9379;52.134;11.576;2023-01-06T10:32:46;4.28;;;3.88;;
18499;SDS011;9379;52.134;11.576;2023-01-06T10:35:16;2.40;;;2.20;;
18499;SDS011;9379;52.134;11.576;2023-01-06T10:37:46;2.70;;;2.50;;
18499;SDS011;9379;52.134;11.576;2023-01-06T10:40:17;2.30;;;1.90;;
18499;SDS011;9379;52.134;11.576;2023-01-06T10:42:47;5.05;;;4.55;;
18499;SDS011;9379;52.134;11.576;2023-01-06T10:45:25;4.55;;;4.15;;
18499;SDS011;9379;52.134;11.576;2023-01-06T10:47:54;4.30;;;3.92;;
18499;SDS011;9379;52.134;11.576;2023-01-06T10:50:23;4.00;;;3.63;;
18499;SDS011;9379;52.134;11.576;2023-01-06T10:52:51;2.95;;;2.65;;
18499;SDS011;9379;52.134;11.576;2023-01-06T10:55:30;7.07;;;5.50;;
18499;SDS011;9379;52.134;11.576;2023-01-06T11:00:57;2.92;;;2.72;;
18499;SDS011;9379;52.134;11.576;2023-01-06T11:03:26;3.28;;;2.80;;
18499;SDS011;9379;52.134;11.576;2023-01-06T11:06:05;2.40;;;2.17;;
18499;SDS011;9379;52.134;11.576;2023-01-06T11:08:34;1.92;;;1.80;;
18499;SDS011;9379;52.134;11.576;2023-01-06T11:11:02;0.90;;;0.90;;
18499;SDS011;9379;52.134;11.576;2023-01-06T11:13:36;1.95;;;1.85;;
18499;SDS011;9379;52.134;11.576;2023-01-06T11:16:05;3.15;;;1.80;;
18499;SDS011;9379;52.134;11.576;2023-01-06T11:18:43;3.08;;;2.72;;
18499;SDS011;9379;52.134;11.576;2023-01-06T11:21:17;6.63;;;5.10;;
18499;SDS011;9379;52.134;11.576;2023-01-06T11:23:45;4.25;;;3.85;;
18499;SDS011;9379;52.134;11.576;2023-01-06T11:26:14;4.28;;;3.83;;
18499;SDS011;9379;52.134;11.576;2023-01-06T11:28:43;3.15;;;2.85;;
18499;SDS011;9379;52.134;11.576;2023-01-06T11:31:15;2.58;;;2.38;;
18499;SDS011;9379;52.134;11.576;2023-01-06T11:33:46;5.53;;;5.03;;
18499;SDS011;9379;52.134;11.576;2023-01-06T11:36:15;3.78;;;3.17;;
18499;SDS011;9379;52.134;11.576;2023-01-06T11:38:46;2.17;;;2.08;;
18499;SDS011;9379;52.134;11.576;2023-01-06T11:41:19;3.53;;;2.80;;
18499;SDS011;9379;52.134;11.576;2023-01-06T11:43:53;3.08;;;2.45;;
18499;SDS011;9379;52.134;11.576;2023-01-06T11:46:23;2.20;;;1.98;;
18499;SDS011;9379;52.134;11.576;2023-01-06T11:48:53;5.97;;;5.47;;
18499;SDS011;9379;52.134;11.576;2023-01-06T11:51:31;3.50;;;3.15;;
18499;SDS011;9379;52.134;11.576;2023-01-06T11:54:22;3.53;;;3.30;;
18499;SDS011;9379;52.134;11.576;2023-01-06T11:59:45;1.60;;;1.50;;
18499;SDS011;9379;52.134;11.576;2023-01-06T12:02:22;2.60;;;2.40;;
18499;SDS011;9379;52.134;11.576;2023-01-06T12:04:53;3.45;;;3.15;;
18499;SDS011;9379;52.134;11.576;2023-01-06T12:07:24;1.80;;;1.70;;
18499;SDS011;9379;52.134;11.576;2023-01-06T12:09:57;3.70;;;3.30;;
18499;SDS011;9379;52.134;11.576;2023-01-06T12:12:29;1.63;;;1.52;;
18499;SDS011;9379;52.134;11.576;2023-01-06T12:14:56;1.92;;;1.80;;
18499;SDS011;9379;52.134;11.576;2023-01-06T12:17:29;3.28;;;2.80;;
18499;SDS011;9379;52.134;11.576;2023-01-06T12:20:05;2.50;;;1.98;;
18499;SDS011;9379;52.134;11.576;2023-01-06T12:22:39;1.90;;;1.33;;
18499;SDS011;9379;52.134;11.576;2023-01-06T12:25:10;1.27;;;1.17;;
18499;SDS011;9379;52.134;11.576;2023-01-06T12:27:43;3.00;;;2.53;;
18499;SDS011;9379;52.134;11.576;2023-01-06T12:30:17;3.33;;;2.67;;
18499;SDS011;9379;52.134;11.576;2023-01-06T12:32:51;2.25;;;2.05;;
18499;SDS011;9379;52.134;11.576;2023-01-06T12:35:23;8.60;;;6.60;;
18499;SDS011;9379;52.134;11.576;2023-01-06T12:37:57;5.43;;;3.60;;
18499;SDS011;9379;52.134;11.576;2023-01-06T12:40:28;4.25;;;3.67;;
18499;SDS011;9379;52.134;11.576;2023-01-06T12:42:59;8.98;;;8.07;;
18499;SDS011;9379;52.134;11.576;2023-01-06T12:45:39;18.80;;;16.80;;
18499;SDS011;9379;52.134;11.576;2023-01-06T12:48:12;11.38;;;10.48;;
18499;SDS011;9379;52.134;11.576;2023-01-06T12:50:48;8.13;;;7.43;;
18499;SDS011;9379;52.134;11.576;2023-01-06T12:53:21;5.95;;;5.47;;
18499;SDS011;9379;52.134;11.576;2023-01-06T12:55:54;9.50;;;8.65;;
18499;SDS011;9379;52.134;11.576;2023-01-06T12:58:35;12.38;;;11.35;;
18499;SDS011;9379;52.134;11.576;2023-01-06T13:01:07;10.05;;;9.05;;
18499;SDS011;9379;52.134;11.576;2023-01-06T13:03:56;3.92;;;3.63;;
18499;SDS011;9379;52.134;11.576;2023-01-06T13:06:41;2.13;;;1.92;;
18499;SDS011;9379;52.134;11.576;2023-01-06T13:09:22;1.00;;;1.00;;
18499;SDS011;9379;52.134;11.576;2023-01-06T13:12:05;0.80;;;0.80;;
18499;SDS011;9379;52.134;11.576;2023-01-06T13:14:43;0.88;;;0.70;;
18499;SDS011;9379;52.134;11.576;2023-01-06T13:17:18;0.93;;;0.93;;
18499;SDS011;9379;52.134;11.576;2023-01-06T13:19:50;0.70;;;0.70;;
18499;SDS011;9379;52.134;11.576;2023-01-06T13:22:18;0.82;;;0.82;;
18499;SDS011;9379;52.134;11.576;2023-01-06T13:24:57;0.60;;;0.60;;
18499;SDS011;9379;52.134;11.576;2023-01-06T13:27:45;1.40;;;0.85;;
18499;SDS011;9379;52.134;11.576;2023-01-06T13:33:36;1.00;;;1.00;;
18499;SDS011;9379;52.134;11.576;2023-01-06T13:36:36;0.70;;;0.70;;
18499;SDS011;9379;52.134;11.576;2023-01-06T13:39:31;0.77;;;0.77;;
18499;SDS011;9379;52.134;11.576;2023-01-06T13:42:01;1.25;;;1.17;;
18499;SDS011;9379;52.134;11.576;2023-01-06T13:44:32;2.30;;;1.67;;
18499;SDS011;9379;52.134;11.576;2023-01-06T13:47:05;1.85;;;1.30;;
18499;SDS011;9379;52.134;11.576;2023-01-06T13:49:35;2.85;;;0.90;;
18499;SDS011;9379;52.134;11.576;2023-01-06T13:52:03;0.80;;;0.80;;
18499;SDS011;9379;52.134;11.576;2023-01-06T13:57:30;1.40;;;1.13;;
18499;SDS011;9379;52.134;11.576;2023-01-06T14:00:18;0.77;;;0.77;;
18499;SDS011;9379;52.134;11.576;2023-01-06T14:02:59;0.52;;;0.52;;
18499;SDS011;9379;52.134;11.576;2023-01-06T14:05:49;0.40;;;0.40;;
18499;SDS011;9379;52.134;11.576;2023-01-06T14:08:18;0.93;;;0.93;;
18499;SDS011;9379;52.134;11.576;2023-01-06T14:10:46;1.20;;;1.10;;
18499;SDS011;9379;52.134;11.576;2023-01-06T14:13:24;0.95;;;0.88;;
18499;SDS011;9379;52.134;11.576;2023-01-06T14:15:55;0.75;;;0.70;;
18499;SDS011;9379;52.134;11.576;2023-01-06T14:21:23;0.98;;;0.98;;
18499;SDS011;9379;52.134;11.576;2023-01-06T14:23:57;1.08;;;1.08;;
18499;SDS011;9379;52.134;11.576;2023-01-06T14:26:45;1.30;;;1.02;;
18499;SDS011;9379;52.134;11.576;2023-01-06T14:35:33;0.77;;;0.77;;
18499;SDS011;9379;52.134;11.576;2023-01-06T14:38:11;0.80;;;0.80;;
18499;SDS011;9379;52.134;11.576;2023-01-06T14:40:46;0.90;;;0.90;;
18499;SDS011;9379;52.134;11.576;2023-01-06T14:43:30;1.33;;;1.27;;
18499;SDS011;9379;52.134;11.576;2023-01-06T14:46:03;1.25;;;1.15;;
18499;SDS011;9379;52.134;11.576;2023-01-06T14:48:37;1.02;;;1.02;;
18499;SDS011;9379;52.134;11.576;2023-01-06T14:51:11;1.17;;;1.17;;
18499;SDS011;9379;52.134;11.576;2023-01-06T14:53:44;1.15;;;1.10;;
18499;SDS011;9379;52.134;11.576;2023-01-06T14:56:16;0.88;;;0.88;;
18499;SDS011;9379;52.134;11.576;2023-01-06T14:58:43;1.48;;;1.20;;
18499;SDS011;9379;52.134;11.576;2023-01-06T15:01:19;1.45;;;1.35;;
18499;SDS011;9379;52.134;11.576;2023-01-06T15:03:54;1.02;;;1.00;;
18499;SDS011;9379;52.134;11.576;2023-01-06T15:06:23;1.25;;;1.15;;
18499;SDS011;9379;52.134;11.576;2023-01-06T15:08:51;1.08;;;1.08;;
18499;SDS011;9379;52.134;11.576;2023-01-06T15:11:21;0.60;;;0.60;;
18499;SDS011;9379;52.134;11.576;2023-01-06T15:13:50;1.40;;;1.30;;
18499;SDS011;9379;52.134;11.576;2023-01-06T15:16:18;1.50;;;1.40;;
18499;SDS011;9379;52.134;11.576;2023-01-06T15:18:50;1.50;;;1.40;;
18499;SDS011;9379;52.134;11.576;2023-01-06T15:21:20;1.35;;;1.25;;
18499;SDS011;9379;52.134;11.576;2023-01-06T15:23:49;6.57;;;4.57;;
18499;SDS011;9379;52.134;11.576;2023-01-06T15:26:19;4.32;;;3.92;;
18499;SDS011;9379;52.134;11.576;2023-01-06T15:28:58;5.47;;;4.00;;
18499;SDS011;9379;52.134;11.576;2023-01-06T15:31:27;5.50;;;4.70;;
18499;SDS011;9379;52.134;11.576;2023-01-06T15:33:57;5.43;;;3.33;;